sensor_id;sensor_type;location;lat;lon;timestamp;temperature;humidity
44863;DHT22;30597;49.628;10.850;2023-04-25T00:02:20;21.90;53.20
44863;DHT22;30597;49.628;10.850;2023-04-25T00:04:46;21.90;52.80
44863;DHT22;30597;49.628;10.850;2023-04-25T00:07:14;22.00;52.80
44863;DHT22;30597;49.628;10.850;2023-04-25T00:09:39;21.90;52.40
44863;DHT22;30597;49.628;10.850;2023-04-25T00:12:07;21.90;52.30
44863;DHT22;30597;49.628;10.850;2023-04-25T00:14:32;21.90;52.20
44863;DHT22;30597;49.628;10.850;2023-04-25T00:17:01;21.80;52.60
44863;DHT22;30597;49.628;10.850;2023-04-25T00:19:28;21.80;52.90
44863;DHT22;30597;49.628;10.850;2023-04-25T00:21:56;21.80;52.70
44863;DHT22;30597;49.628;10.850;2023-04-25T00:24:22;21.70;52.60
44863;DHT22;30597;49.628;10.850;2023-04-25T00:26:48;21.70;52.80
44863;DHT22;30597;49.628;10.850;2023-04-25T00:29:14;21.70;52.60
44863;DHT22;30597;49.628;10.850;2023-04-25T00:31:39;21.70;52.30
44863;DHT22;30597;49.628;10.850;2023-04-25T00:34:06;21.70;52.70
44863;DHT22;30597;49.628;10.850;2023-04-25T00:36:33;21.70;52.80
44863;DHT22;30597;49.628;10.850;2023-04-25T00:38:59;21.70;52.70
44863;DHT22;30597;49.628;10.850;2023-04-25T00:41:25;21.70;52.90
44863;DHT22;30597;49.628;10.850;2023-04-25T00:43:52;21.70;52.60
44863;DHT22;30597;49.628;10.850;2023-04-25T00:46:18;21.70;52.90
44863;DHT22;30597;49.628;10.850;2023-04-25T00:48:44;21.70;52.80
44863;DHT22;30597;49.628;10.850;2023-04-25T00:51:12;21.60;52.50
44863;DHT22;30597;49.628;10.850;2023-04-25T00:53:38;21.70;52.50
44863;DHT22;30597;49.628;10.850;2023-04-25T00:56:05;21.60;52.50
44863;DHT22;30597;49.628;10.850;2023-04-25T00:58:31;21.60;52.60
44863;DHT22;30597;49.628;10.850;2023-04-25T01:00:57;21.60;52.40
44863;DHT22;30597;49.628;10.850;2023-04-25T01:03:23;21.60;52.10
44863;DHT22;30597;49.628;10.850;2023-04-25T01:05:49;21.60;52.60
44863;DHT22;30597;49.628;10.850;2023-04-25T01:08:15;21.60;52.60
44863;DHT22;30597;49.628;10.850;2023-04-25T01:10:40;21.60;52.70
44863;DHT22;30597;49.628;10.850;2023-04-25T01:13:06;21.60;53.00
44863;DHT22;30597;49.628;10.850;2023-04-25T01:15:32;21.60;52.60
44863;DHT22;30597;49.628;10.850;2023-04-25T01:17:58;21.60;52.90
44863;DHT22;30597;49.628;10.850;2023-04-25T01:20:26;21.60;52.90
44863;DHT22;30597;49.628;10.850;2023-04-25T01:22:54;21.60;52.90
44863;DHT22;30597;49.628;10.850;2023-04-25T01:25:20;21.50;52.80
44863;DHT22;30597;49.628;10.850;2023-04-25T01:27:49;21.50;52.90
44863;DHT22;30597;49.628;10.850;2023-04-25T01:30:15;21.50;52.60
44863;DHT22;30597;49.628;10.850;2023-04-25T01:32:42;21.50;52.80
44863;DHT22;30597;49.628;10.850;2023-04-25T01:35:10;21.60;52.90
44863;DHT22;30597;49.628;10.850;2023-04-25T01:37:40;21.50;52.80
44863;DHT22;30597;49.628;10.850;2023-04-25T01:40:10;21.50;53.00
44863;DHT22;30597;49.628;10.850;2023-04-25T01:42:39;21.50;53.00
44863;DHT22;30597;49.628;10.850;2023-04-25T01:45:05;21.50;53.20
44863;DHT22;30597;49.628;10.850;2023-04-25T01:47:31;21.50;53.20
44863;DHT22;30597;49.628;10.850;2023-04-25T01:49:57;21.50;53.30
44863;DHT22;30597;49.628;10.850;2023-04-25T01:52:23;21.50;53.20
44863;DHT22;30597;49.628;10.850;2023-04-25T01:54:50;21.50;53.20
44863;DHT22;30597;49.628;10.850;2023-04-25T01:57:16;21.50;53.40
44863;DHT22;30597;49.628;10.850;2023-04-25T01:59:42;21.50;53.40
44863;DHT22;30597;49.628;10.850;2023-04-25T02:02:08;21.50;53.40
44863;DHT22;30597;49.628;10.850;2023-04-25T02:04:33;21.50;53.50
44863;DHT22;30597;49.628;10.850;2023-04-25T02:06:59;21.50;53.40
44863;DHT22;30597;49.628;10.850;2023-04-25T02:09:25;21.50;53.50
44863;DHT22;30597;49.628;10.850;2023-04-25T02:11:50;21.50;54.20
44863;DHT22;30597;49.628;10.850;2023-04-25T02:14:16;21.50;54.20
44863;DHT22;30597;49.628;10.850;2023-04-25T02:16:41;21.50;53.50
44863;DHT22;30597;49.628;10.850;2023-04-25T02:19:09;21.50;53.50
44863;DHT22;30597;49.628;10.850;2023-04-25T02:21:36;21.50;53.50
44863;DHT22;30597;49.628;10.850;2023-04-25T02:24:02;21.50;53.50
44863;DHT22;30597;49.628;10.850;2023-04-25T02:26:28;21.50;53.60
44863;DHT22;30597;49.628;10.850;2023-04-25T02:28:53;21.40;53.40
44863;DHT22;30597;49.628;10.850;2023-04-25T02:31:19;21.50;53.60
44863;DHT22;30597;49.628;10.850;2023-04-25T02:33:44;21.50;53.50
44863;DHT22;30597;49.628;10.850;2023-04-25T02:36:10;21.50;54.20
44863;DHT22;30597;49.628;10.850;2023-04-25T02:38:35;21.40;53.40
44863;DHT22;30597;49.628;10.850;2023-04-25T02:41:01;21.40;53.50
44863;DHT22;30597;49.628;10.850;2023-04-25T02:43:26;21.40;54.10
44863;DHT22;30597;49.628;10.850;2023-04-25T02:45:52;21.40;53.60
44863;DHT22;30597;49.628;10.850;2023-04-25T02:48:18;21.40;53.50
44863;DHT22;30597;49.628;10.850;2023-04-25T02:50:43;21.40;53.50
44863;DHT22;30597;49.628;10.850;2023-04-25T02:53:11;21.40;53.50
44863;DHT22;30597;49.628;10.850;2023-04-25T02:55:36;21.40;53.50
44863;DHT22;30597;49.628;10.850;2023-04-25T02:58:02;21.40;53.50
44863;DHT22;30597;49.628;10.850;2023-04-25T03:00:28;21.40;53.60
44863;DHT22;30597;49.628;10.850;2023-04-25T03:02:53;21.40;53.60
44863;DHT22;30597;49.628;10.850;2023-04-25T03:05:19;21.40;53.60
44863;DHT22;30597;49.628;10.850;2023-04-25T03:07:44;21.40;53.60
44863;DHT22;30597;49.628;10.850;2023-04-25T03:10:11;21.40;53.60
44863;DHT22;30597;49.628;10.850;2023-04-25T03:12:36;21.40;53.60
44863;DHT22;30597;49.628;10.850;2023-04-25T03:15:03;21.40;53.70
44863;DHT22;30597;49.628;10.850;2023-04-25T03:17:29;21.40;53.70
44863;DHT22;30597;49.628;10.850;2023-04-25T03:19:55;21.40;53.80
44863;DHT22;30597;49.628;10.850;2023-04-25T03:22:21;21.30;53.70
44863;DHT22;30597;49.628;10.850;2023-04-25T03:24:46;21.30;53.80
44863;DHT22;30597;49.628;10.850;2023-04-25T03:27:12;21.30;53.80
44863;DHT22;30597;49.628;10.850;2023-04-25T03:29:38;21.30;53.90
44863;DHT22;30597;49.628;10.850;2023-04-25T03:32:03;21.30;53.90
44863;DHT22;30597;49.628;10.850;2023-04-25T03:34:29;21.30;53.80
44863;DHT22;30597;49.628;10.850;2023-04-25T03:36:55;21.30;53.80
44863;DHT22;30597;49.628;10.850;2023-04-25T03:39:20;21.30;53.80
44863;DHT22;30597;49.628;10.850;2023-04-25T03:41:46;21.30;53.90
44863;DHT22;30597;49.628;10.850;2023-04-25T03:44:11;21.30;53.90
44863;DHT22;30597;49.628;10.850;2023-04-25T03:46:37;21.30;53.90
44863;DHT22;30597;49.628;10.850;2023-04-25T03:49:03;21.30;53.80
44863;DHT22;30597;49.628;10.850;2023-04-25T03:51:28;21.30;53.80
44863;DHT22;30597;49.628;10.850;2023-04-25T03:53:54;21.30;53.80
44863;DHT22;30597;49.628;10.850;2023-04-25T03:56:20;21.30;53.70
44863;DHT22;30597;49.628;10.850;2023-04-25T03:58:46;21.30;53.80
44863;DHT22;30597;49.628;10.850;2023-04-25T04:01:11;21.20;53.70
44863;DHT22;30597;49.628;10.850;2023-04-25T04:03:37;21.20;53.80
44863;DHT22;30597;49.628;10.850;2023-04-25T04:06:07;21.20;53.80
44863;DHT22;30597;49.628;10.850;2023-04-25T04:08:33;21.20;53.90
44863;DHT22;30597;49.628;10.850;2023-04-25T04:10:58;21.20;53.90
44863;DHT22;30597;49.628;10.850;2023-04-25T04:13:27;21.20;53.80
44863;DHT22;30597;49.628;10.850;2023-04-25T04:15:54;21.20;53.90
44863;DHT22;30597;49.628;10.850;2023-04-25T04:18:19;21.10;53.90
44863;DHT22;30597;49.628;10.850;2023-04-25T04:20:45;21.10;53.80
44863;DHT22;30597;49.628;10.850;2023-04-25T04:23:10;21.10;53.70
44863;DHT22;30597;49.628;10.850;2023-04-25T04:25:36;21.10;53.70
44863;DHT22;30597;49.628;10.850;2023-04-25T04:28:02;21.10;53.60
44863;DHT22;30597;49.628;10.850;2023-04-25T04:30:28;21.10;53.80
44863;DHT22;30597;49.628;10.850;2023-04-25T04:32:56;21.10;54.00
44863;DHT22;30597;49.628;10.850;2023-04-25T04:35:23;21.10;54.10
44863;DHT22;30597;49.628;10.850;2023-04-25T04:37:49;21.10;54.00
44863;DHT22;30597;49.628;10.850;2023-04-25T04:40:15;21.10;54.20
44863;DHT22;30597;49.628;10.850;2023-04-25T04:42:42;21.10;54.10
44863;DHT22;30597;49.628;10.850;2023-04-25T04:45:08;21.10;54.10
44863;DHT22;30597;49.628;10.850;2023-04-25T04:47:34;21.10;54.20
44863;DHT22;30597;49.628;10.850;2023-04-25T04:50:03;21.10;54.20
44863;DHT22;30597;49.628;10.850;2023-04-25T04:52:29;21.10;54.30
44863;DHT22;30597;49.628;10.850;2023-04-25T04:54:55;21.00;54.20
44863;DHT22;30597;49.628;10.850;2023-04-25T04:57:20;21.00;54.20
44863;DHT22;30597;49.628;10.850;2023-04-25T04:59:46;21.00;54.20
44863;DHT22;30597;49.628;10.850;2023-04-25T05:02:11;21.10;54.40
44863;DHT22;30597;49.628;10.850;2023-04-25T05:04:37;21.10;54.40
44863;DHT22;30597;49.628;10.850;2023-04-25T05:07:02;21.10;54.40
44863;DHT22;30597;49.628;10.850;2023-04-25T05:09:28;21.10;54.40
44863;DHT22;30597;49.628;10.850;2023-04-25T05:11:54;21.00;54.40
44863;DHT22;30597;49.628;10.850;2023-04-25T05:14:20;21.00;54.40
44863;DHT22;30597;49.628;10.850;2023-04-25T05:16:47;21.00;54.40
44863;DHT22;30597;49.628;10.850;2023-04-25T05:19:12;21.00;54.30
44863;DHT22;30597;49.628;10.850;2023-04-25T05:21:38;21.00;54.30
44863;DHT22;30597;49.628;10.850;2023-04-25T05:24:04;21.00;54.30
44863;DHT22;30597;49.628;10.850;2023-04-25T05:26:29;21.00;54.30
44863;DHT22;30597;49.628;10.850;2023-04-25T05:28:57;21.00;54.20
44863;DHT22;30597;49.628;10.850;2023-04-25T05:31:23;21.00;54.20
44863;DHT22;30597;49.628;10.850;2023-04-25T05:33:48;21.10;54.50
44863;DHT22;30597;49.628;10.850;2023-04-25T05:36:14;21.10;54.40
44863;DHT22;30597;49.628;10.850;2023-04-25T05:38:39;21.10;54.40
44863;DHT22;30597;49.628;10.850;2023-04-25T05:41:05;21.10;54.40
44863;DHT22;30597;49.628;10.850;2023-04-25T05:43:30;21.10;54.40
44863;DHT22;30597;49.628;10.850;2023-04-25T05:45:56;21.00;54.40
44863;DHT22;30597;49.628;10.850;2023-04-25T05:48:21;21.00;54.50
44863;DHT22;30597;49.628;10.850;2023-04-25T05:50:47;21.00;54.40
44863;DHT22;30597;49.628;10.850;2023-04-25T05:53:13;21.00;54.50
44863;DHT22;30597;49.628;10.850;2023-04-25T05:55:38;21.00;54.50
44863;DHT22;30597;49.628;10.850;2023-04-25T05:58:05;21.00;54.40
44863;DHT22;30597;49.628;10.850;2023-04-25T06:00:32;21.00;54.70
44863;DHT22;30597;49.628;10.850;2023-04-25T06:02:57;21.00;54.50
44863;DHT22;30597;49.628;10.850;2023-04-25T06:05:23;21.00;54.10
44863;DHT22;30597;49.628;10.850;2023-04-25T06:07:49;21.00;53.80
44863;DHT22;30597;49.628;10.850;2023-04-25T06:10:14;21.00;53.20
44863;DHT22;30597;49.628;10.850;2023-04-25T06:12:40;21.10;52.50
44863;DHT22;30597;49.628;10.850;2023-04-25T06:15:06;21.20;52.50
44863;DHT22;30597;49.628;10.850;2023-04-25T06:17:32;21.40;52.60
44863;DHT22;30597;49.628;10.850;2023-04-25T06:19:58;21.50;52.50
44863;DHT22;30597;49.628;10.850;2023-04-25T06:22:23;21.60;52.60
44863;DHT22;30597;49.628;10.850;2023-04-25T06:24:49;21.70;52.50
44863;DHT22;30597;49.628;10.850;2023-04-25T06:27:15;21.80;52.70
44863;DHT22;30597;49.628;10.850;2023-04-25T06:29:40;21.80;52.60
44863;DHT22;30597;49.628;10.850;2023-04-25T06:32:06;21.90;52.10
44863;DHT22;30597;49.628;10.850;2023-04-25T06:34:31;22.00;51.70
44863;DHT22;30597;49.628;10.850;2023-04-25T06:36:57;21.90;51.50
44863;DHT22;30597;49.628;10.850;2023-04-25T06:39:22;22.00;51.80
44863;DHT22;30597;49.628;10.850;2023-04-25T06:41:50;22.10;51.90
44863;DHT22;30597;49.628;10.850;2023-04-25T06:44:15;22.00;51.50
44863;DHT22;30597;49.628;10.850;2023-04-25T06:46:41;22.10;51.50
44863;DHT22;30597;49.628;10.850;2023-04-25T06:49:06;22.10;51.30
44863;DHT22;30597;49.628;10.850;2023-04-25T06:51:32;22.10;51.30
44863;DHT22;30597;49.628;10.850;2023-04-25T06:53:57;22.10;51.20
44863;DHT22;30597;49.628;10.850;2023-04-25T06:56:23;22.10;51.20
44863;DHT22;30597;49.628;10.850;2023-04-25T06:58:49;22.10;51.20
44863;DHT22;30597;49.628;10.850;2023-04-25T07:01:14;22.00;51.10
44863;DHT22;30597;49.628;10.850;2023-04-25T07:03:40;22.00;51.20
44863;DHT22;30597;49.628;10.850;2023-04-25T07:06:06;22.00;51.20
44863;DHT22;30597;49.628;10.850;2023-04-25T07:08:32;22.00;51.20
44863;DHT22;30597;49.628;10.850;2023-04-25T07:10:57;22.00;51.20
44863;DHT22;30597;49.628;10.850;2023-04-25T07:13:23;21.90;51.10
44863;DHT22;30597;49.628;10.850;2023-04-25T07:15:49;21.90;51.10
44863;DHT22;30597;49.628;10.850;2023-04-25T07:18:14;21.90;51.20
44863;DHT22;30597;49.628;10.850;2023-04-25T07:20:40;21.80;51.00
44863;DHT22;30597;49.628;10.850;2023-04-25T07:23:06;21.80;51.00
44863;DHT22;30597;49.628;10.850;2023-04-25T07:25:31;21.70;51.00
44863;DHT22;30597;49.628;10.850;2023-04-25T07:27:57;21.70;50.90
44863;DHT22;30597;49.628;10.850;2023-04-25T07:30:23;21.70;51.00
44863;DHT22;30597;49.628;10.850;2023-04-25T07:32:49;21.70;51.00
44863;DHT22;30597;49.628;10.850;2023-04-25T07:35:15;21.60;51.10
44863;DHT22;30597;49.628;10.850;2023-04-25T07:37:41;21.60;51.20
44863;DHT22;30597;49.628;10.850;2023-04-25T07:40:07;21.60;51.20
44863;DHT22;30597;49.628;10.850;2023-04-25T07:42:34;21.50;51.10
44863;DHT22;30597;49.628;10.850;2023-04-25T07:45:00;21.50;51.30
44863;DHT22;30597;49.628;10.850;2023-04-25T07:47:26;21.50;51.30
44863;DHT22;30597;49.628;10.850;2023-04-25T07:49:52;21.50;51.30
44863;DHT22;30597;49.628;10.850;2023-04-25T07:52:17;21.40;51.20
44863;DHT22;30597;49.628;10.850;2023-04-25T07:54:43;21.40;51.20
44863;DHT22;30597;49.628;10.850;2023-04-25T07:57:08;21.40;51.20
44863;DHT22;30597;49.628;10.850;2023-04-25T07:59:34;21.40;51.30
44863;DHT22;30597;49.628;10.850;2023-04-25T08:02:01;21.40;51.30
44863;DHT22;30597;49.628;10.850;2023-04-25T08:04:26;21.30;51.30
44863;DHT22;30597;49.628;10.850;2023-04-25T08:06:52;21.30;51.30
44863;DHT22;30597;49.628;10.850;2023-04-25T08:09:19;21.30;51.30
44863;DHT22;30597;49.628;10.850;2023-04-25T08:11:45;21.30;51.20
44863;DHT22;30597;49.628;10.850;2023-04-25T08:14:12;21.30;51.10
44863;DHT22;30597;49.628;10.850;2023-04-25T08:16:37;21.30;51.10
44863;DHT22;30597;49.628;10.850;2023-04-25T08:19:03;21.30;51.10
44863;DHT22;30597;49.628;10.850;2023-04-25T08:21:28;21.30;51.00
44863;DHT22;30597;49.628;10.850;2023-04-25T08:23:54;21.30;50.90
44863;DHT22;30597;49.628;10.850;2023-04-25T08:26:19;21.30;50.90
44863;DHT22;30597;49.628;10.850;2023-04-25T08:28:46;21.30;50.90
44863;DHT22;30597;49.628;10.850;2023-04-25T08:31:12;21.30;50.90
44863;DHT22;30597;49.628;10.850;2023-04-25T08:33:37;21.30;50.80
44863;DHT22;30597;49.628;10.850;2023-04-25T08:36:03;21.40;50.80
44863;DHT22;30597;49.628;10.850;2023-04-25T08:38:28;21.40;50.70
44863;DHT22;30597;49.628;10.850;2023-04-25T08:40:54;21.50;50.60
44863;DHT22;30597;49.628;10.850;2023-04-25T08:43:20;21.60;50.40
44863;DHT22;30597;49.628;10.850;2023-04-25T08:45:46;21.70;50.30
44863;DHT22;30597;49.628;10.850;2023-04-25T08:48:14;21.70;50.20
44863;DHT22;30597;49.628;10.850;2023-04-25T08:50:53;21.80;50.20
44863;DHT22;30597;49.628;10.850;2023-04-25T08:53:27;21.80;50.10
44863;DHT22;30597;49.628;10.850;2023-04-25T08:55:57;21.90;49.80
44863;DHT22;30597;49.628;10.850;2023-04-25T08:58:23;22.00;50.00
44863;DHT22;30597;49.628;10.850;2023-04-25T09:00:50;22.00;49.90
44863;DHT22;30597;49.628;10.850;2023-04-25T09:03:16;22.00;49.80
44863;DHT22;30597;49.628;10.850;2023-04-25T09:05:42;22.00;49.70
44863;DHT22;30597;49.628;10.850;2023-04-25T09:08:08;22.00;49.60
44863;DHT22;30597;49.628;10.850;2023-04-25T09:10:35;22.00;49.60
44863;DHT22;30597;49.628;10.850;2023-04-25T09:13:05;22.00;49.60
44863;DHT22;30597;49.628;10.850;2023-04-25T09:15:32;22.00;49.60
44863;DHT22;30597;49.628;10.850;2023-04-25T09:17:58;22.00;49.70
44863;DHT22;30597;49.628;10.850;2023-04-25T09:20:24;22.00;49.70
44863;DHT22;30597;49.628;10.850;2023-04-25T09:23:01;22.00;49.60
44863;DHT22;30597;49.628;10.850;2023-04-25T09:25:36;21.90;49.70
44863;DHT22;30597;49.628;10.850;2023-04-25T09:28:05;21.90;49.60
44863;DHT22;30597;49.628;10.850;2023-04-25T09:30:33;21.80;49.40
44863;DHT22;30597;49.628;10.850;2023-04-25T09:33:09;21.70;49.10
44863;DHT22;30597;49.628;10.850;2023-04-25T09:35:40;21.80;49.70
44863;DHT22;30597;49.628;10.850;2023-04-25T09:38:14;21.70;49.40
44863;DHT22;30597;49.628;10.850;2023-04-25T09:40:45;21.70;49.70
44863;DHT22;30597;49.628;10.850;2023-04-25T09:43:22;21.60;49.60
44863;DHT22;30597;49.628;10.850;2023-04-25T09:45:49;21.60;49.70
44863;DHT22;30597;49.628;10.850;2023-04-25T09:48:21;21.60;49.90
44863;DHT22;30597;49.628;10.850;2023-04-25T09:51:09;21.60;50.00
44863;DHT22;30597;49.628;10.850;2023-04-25T09:53:40;21.60;50.00
44863;DHT22;30597;49.628;10.850;2023-04-25T09:56:08;21.50;50.00
44863;DHT22;30597;49.628;10.850;2023-04-25T09:58:35;21.50;50.10
44863;DHT22;30597;49.628;10.850;2023-04-25T10:01:03;21.50;50.10
44863;DHT22;30597;49.628;10.850;2023-04-25T10:03:33;21.50;50.00
44863;DHT22;30597;49.628;10.850;2023-04-25T10:06:01;21.50;49.60
44863;DHT22;30597;49.628;10.850;2023-04-25T10:08:33;21.50;50.00
44863;DHT22;30597;49.628;10.850;2023-04-25T10:11:04;21.50;50.00
44863;DHT22;30597;49.628;10.850;2023-04-25T10:13:30;21.50;49.70
44863;DHT22;30597;49.628;10.850;2023-04-25T10:15:58;21.50;50.10
44863;DHT22;30597;49.628;10.850;2023-04-25T10:18:25;21.50;50.10
44863;DHT22;30597;49.628;10.850;2023-04-25T10:20:51;21.50;49.90
44863;DHT22;30597;49.628;10.850;2023-04-25T10:23:16;21.50;49.80
44863;DHT22;30597;49.628;10.850;2023-04-25T10:25:43;21.50;49.90
44863;DHT22;30597;49.628;10.850;2023-04-25T10:28:09;21.50;49.70
44863;DHT22;30597;49.628;10.850;2023-04-25T10:30:35;21.50;49.80
44863;DHT22;30597;49.628;10.850;2023-04-25T10:33:00;21.40;49.40
44863;DHT22;30597;49.628;10.850;2023-04-25T10:35:30;21.50;49.40
44863;DHT22;30597;49.628;10.850;2023-04-25T10:38:02;21.60;49.30
44863;DHT22;30597;49.628;10.850;2023-04-25T10:40:29;21.70;49.20
44863;DHT22;30597;49.628;10.850;2023-04-25T10:42:55;21.80;49.00
44863;DHT22;30597;49.628;10.850;2023-04-25T10:45:21;21.80;49.10
44863;DHT22;30597;49.628;10.850;2023-04-25T10:47:47;21.80;48.60
44863;DHT22;30597;49.628;10.850;2023-04-25T10:50:16;22.00;49.00
44863;DHT22;30597;49.628;10.850;2023-04-25T10:52:42;22.00;48.80
44863;DHT22;30597;49.628;10.850;2023-04-25T10:55:08;22.00;48.80
44863;DHT22;30597;49.628;10.850;2023-04-25T11:02:30;22.10;47.00
44863;DHT22;30597;49.628;10.850;2023-04-25T11:04:56;22.10;47.10
44863;DHT22;30597;49.628;10.850;2023-04-25T11:07:51;22.20;47.30
44863;DHT22;30597;49.628;10.850;2023-04-25T11:10:18;22.20;46.90
44863;DHT22;30597;49.628;10.850;2023-04-25T11:12:45;22.10;47.30
44863;DHT22;30597;49.628;10.850;2023-04-25T11:15:11;22.10;47.20
44863;DHT22;30597;49.628;10.850;2023-04-25T11:17:37;22.10;47.10
44863;DHT22;30597;49.628;10.850;2023-04-25T11:20:06;22.10;47.30
44863;DHT22;30597;49.628;10.850;2023-04-25T11:22:34;22.10;47.50
44863;DHT22;30597;49.628;10.850;2023-04-25T11:25:05;22.00;46.80
44863;DHT22;30597;49.628;10.850;2023-04-25T11:27:31;22.00;47.20
44863;DHT22;30597;49.628;10.850;2023-04-25T11:29:56;22.00;47.30
44863;DHT22;30597;49.628;10.850;2023-04-25T11:32:23;21.90;47.40
44863;DHT22;30597;49.628;10.850;2023-04-25T11:34:48;21.80;47.70
44863;DHT22;30597;49.628;10.850;2023-04-25T11:37:15;21.90;47.90
44863;DHT22;30597;49.628;10.850;2023-04-25T11:39:44;21.80;48.00
44863;DHT22;30597;49.628;10.850;2023-04-25T11:42:11;21.80;48.10
44863;DHT22;30597;49.628;10.850;2023-04-25T11:44:38;21.70;48.10
44863;DHT22;30597;49.628;10.850;2023-04-25T11:47:05;21.70;48.20
44863;DHT22;30597;49.628;10.850;2023-04-25T11:49:31;21.60;48.30
44863;DHT22;30597;49.628;10.850;2023-04-25T11:51:57;21.60;48.30
44863;DHT22;30597;49.628;10.850;2023-04-25T11:54:23;21.60;48.30
44863;DHT22;30597;49.628;10.850;2023-04-25T11:56:48;21.60;48.40
44863;DHT22;30597;49.628;10.850;2023-04-25T11:59:14;21.60;48.50
44863;DHT22;30597;49.628;10.850;2023-04-25T12:01:41;21.50;48.40
44863;DHT22;30597;49.628;10.850;2023-04-25T12:04:15;21.50;48.40
44863;DHT22;30597;49.628;10.850;2023-04-25T12:06:42;21.50;48.40
44863;DHT22;30597;49.628;10.850;2023-04-25T12:09:10;21.50;48.50
44863;DHT22;30597;49.628;10.850;2023-04-25T12:11:43;21.40;48.40
44863;DHT22;30597;49.628;10.850;2023-04-25T12:14:10;21.40;48.40
44863;DHT22;30597;49.628;10.850;2023-04-25T12:16:46;21.40;48.20
44863;DHT22;30597;49.628;10.850;2023-04-25T12:19:16;21.40;48.30
44863;DHT22;30597;49.628;10.850;2023-04-25T12:21:43;21.40;48.30
44863;DHT22;30597;49.628;10.850;2023-04-25T12:24:16;21.50;48.50
44863;DHT22;30597;49.628;10.850;2023-04-25T12:29:25;21.50;48.30
44863;DHT22;30597;49.628;10.850;2023-04-25T12:31:52;21.60;48.00
44863;DHT22;30597;49.628;10.850;2023-04-25T12:34:19;21.70;48.20
44863;DHT22;30597;49.628;10.850;2023-04-25T12:36:44;21.70;47.60
44863;DHT22;30597;49.628;10.850;2023-04-25T12:39:17;21.80;47.60
44863;DHT22;30597;49.628;10.850;2023-04-25T12:41:44;21.90;47.80
44863;DHT22;30597;49.628;10.850;2023-04-25T12:44:10;21.90;47.60
44863;DHT22;30597;49.628;10.850;2023-04-25T12:46:37;22.00;47.60
44863;DHT22;30597;49.628;10.850;2023-04-25T12:49:03;22.00;47.60
44863;DHT22;30597;49.628;10.850;2023-04-25T12:51:29;22.10;47.70
44863;DHT22;30597;49.628;10.850;2023-04-25T12:53:55;22.10;47.70
44863;DHT22;30597;49.628;10.850;2023-04-25T12:56:20;22.10;47.50
44863;DHT22;30597;49.628;10.850;2023-04-25T12:58:46;22.10;47.20
44863;DHT22;30597;49.628;10.850;2023-04-25T13:01:13;22.10;47.30
44863;DHT22;30597;49.628;10.850;2023-04-25T13:03:39;22.10;47.60
44863;DHT22;30597;49.628;10.850;2023-04-25T13:06:06;22.10;47.40
44863;DHT22;30597;49.628;10.850;2023-04-25T13:08:32;22.10;47.60
44863;DHT22;30597;49.628;10.850;2023-04-25T13:10:57;22.10;47.40
44863;DHT22;30597;49.628;10.850;2023-04-25T13:13:23;22.00;47.50
44863;DHT22;30597;49.628;10.850;2023-04-25T13:15:48;22.00;47.50
44863;DHT22;30597;49.628;10.850;2023-04-25T13:18:14;22.00;47.50
44863;DHT22;30597;49.628;10.850;2023-04-25T13:20:40;22.00;47.50
44863;DHT22;30597;49.628;10.850;2023-04-25T13:23:06;22.00;47.50
44863;DHT22;30597;49.628;10.850;2023-04-25T13:25:31;22.00;47.70
44863;DHT22;30597;49.628;10.850;2023-04-25T13:27:57;22.00;47.70
44863;DHT22;30597;49.628;10.850;2023-04-25T13:30:22;22.00;47.70
44863;DHT22;30597;49.628;10.850;2023-04-25T13:32:48;21.90;47.80
44863;DHT22;30597;49.628;10.850;2023-04-25T13:35:13;21.90;47.80
44863;DHT22;30597;49.628;10.850;2023-04-25T13:37:40;21.80;47.70
44863;DHT22;30597;49.628;10.850;2023-04-25T13:40:07;21.80;48.00
44863;DHT22;30597;49.628;10.850;2023-04-25T13:42:35;21.70;48.10
44863;DHT22;30597;49.628;10.850;2023-04-25T13:45:01;21.60;48.30
44863;DHT22;30597;49.628;10.850;2023-04-25T13:47:28;21.60;48.20
44863;DHT22;30597;49.628;10.850;2023-04-25T13:49:54;21.50;48.40
44863;DHT22;30597;49.628;10.850;2023-04-25T13:52:20;21.50;48.40
44863;DHT22;30597;49.628;10.850;2023-04-25T13:54:46;21.40;48.40
44863;DHT22;30597;49.628;10.850;2023-04-25T13:57:11;21.40;48.60
44863;DHT22;30597;49.628;10.850;2023-04-25T13:59:37;21.40;48.60
44863;DHT22;30597;49.628;10.850;2023-04-25T14:02:03;21.40;48.70
44863;DHT22;30597;49.628;10.850;2023-04-25T14:04:31;21.40;48.80
44863;DHT22;30597;49.628;10.850;2023-04-25T14:06:57;21.30;48.70
44863;DHT22;30597;49.628;10.850;2023-04-25T14:09:23;21.30;48.80
44863;DHT22;30597;49.628;10.850;2023-04-25T14:11:51;21.30;48.90
44863;DHT22;30597;49.628;10.850;2023-04-25T14:14:18;21.30;48.80
44863;DHT22;30597;49.628;10.850;2023-04-25T14:16:43;21.30;48.80
44863;DHT22;30597;49.628;10.850;2023-04-25T14:19:09;21.30;48.80
44863;DHT22;30597;49.628;10.850;2023-04-25T14:21:34;21.30;48.70
44863;DHT22;30597;49.628;10.850;2023-04-25T14:24:00;21.30;48.70
44863;DHT22;30597;49.628;10.850;2023-04-25T14:26:26;21.30;48.60
44863;DHT22;30597;49.628;10.850;2023-04-25T14:28:51;21.30;48.60
44863;DHT22;30597;49.628;10.850;2023-04-25T14:31:17;21.30;48.70
44863;DHT22;30597;49.628;10.850;2023-04-25T14:33:43;21.40;48.60
44863;DHT22;30597;49.628;10.850;2023-04-25T14:36:09;21.50;48.50
44863;DHT22;30597;49.628;10.850;2023-04-25T14:38:34;21.60;47.90
44863;DHT22;30597;49.628;10.850;2023-04-25T14:41:00;21.60;47.70
44863;DHT22;30597;49.628;10.850;2023-04-25T14:43:25;21.70;47.90
44863;DHT22;30597;49.628;10.850;2023-04-25T14:45:51;21.80;47.70
44863;DHT22;30597;49.628;10.850;2023-04-25T14:48:18;21.90;47.60
44863;DHT22;30597;49.628;10.850;2023-04-25T14:50:45;21.90;47.70
44863;DHT22;30597;49.628;10.850;2023-04-25T14:53:11;22.00;47.80
44863;DHT22;30597;49.628;10.850;2023-04-25T14:55:37;22.00;47.40
44863;DHT22;30597;49.628;10.850;2023-04-25T14:58:02;22.00;47.60
44863;DHT22;30597;49.628;10.850;2023-04-25T15:00:28;22.10;47.60
44863;DHT22;30597;49.628;10.850;2023-04-25T15:02:56;22.10;47.60
44863;DHT22;30597;49.628;10.850;2023-04-25T15:05:21;22.10;47.40
44863;DHT22;30597;49.628;10.850;2023-04-25T15:07:47;22.20;47.70
44863;DHT22;30597;49.628;10.850;2023-04-25T15:10:13;22.10;47.50
44863;DHT22;30597;49.628;10.850;2023-04-25T15:12:39;22.20;47.50
44863;DHT22;30597;49.628;10.850;2023-04-25T15:15:06;22.10;47.60
44863;DHT22;30597;49.628;10.850;2023-04-25T15:17:43;22.10;47.60
44863;DHT22;30597;49.628;10.850;2023-04-25T15:20:10;22.10;47.60